createdAt,value
2017-12-13T00:01:32.002Z,25.67
2017-12-13T00:03:58.730Z,23.83
2017-12-13T00:06:25.412Z,23.57
2017-12-13T00:09:08.989Z,26.60
2017-12-13T00:11:36.682Z,29.83
2017-12-13T00:14:03.415Z,29.07
2017-12-13T00:16:43.432Z,28.93
2017-12-13T00:19:16.661Z,26.97
2017-12-13T00:21:47.739Z,28.73
2017-12-13T00:24:14.460Z,25.00
2017-12-13T00:26:41.140Z,27.37
2017-12-13T00:29:07.900Z,32.40
2017-12-13T00:31:40.366Z,32.43
2017-12-13T00:34:14.648Z,28.70
2017-12-13T00:39:39.742Z,32.67
2017-12-13T00:42:12.865Z,28.43
2017-12-13T00:44:40.583Z,41.70
2017-12-13T00:47:07.280Z,29.77
2017-12-13T00:49:34.022Z,35.10
2017-12-13T00:52:02.754Z,41.40
2017-12-13T00:54:31.428Z,35.97
2017-12-13T00:56:58.138Z,38.33
2017-12-13T00:59:31.984Z,41.23
2017-12-13T01:01:58.692Z,39.03
2017-12-13T01:04:26.398Z,35.70
2017-12-13T01:06:53.178Z,37.17
2017-12-13T01:09:23.224Z,38.70
2017-12-13T01:12:03.469Z,39.13
2017-12-13T01:14:37.700Z,39.03
2017-12-13T01:17:07.710Z,34.33
2017-12-13T01:19:40.323Z,31.97
2017-12-13T01:22:08.026Z,32.57
2017-12-13T01:24:41.176Z,35.43
2017-12-13T01:27:17.894Z,47.47
2017-12-13T01:29:44.612Z,37.67
2017-12-13T01:32:11.352Z,33.40
2017-12-13T01:34:38.074Z,31.00
2017-12-13T01:37:07.908Z,32.77
2017-12-13T01:39:40.415Z,34.27
2017-12-13T01:42:07.164Z,40.77
2017-12-13T01:44:33.878Z,39.77
2017-12-13T01:47:07.592Z,35.03
2017-12-13T01:49:34.276Z,36.37
2017-12-13T01:52:10.918Z,33.33
2017-12-13T01:54:37.689Z,33.53
2017-12-13T01:57:04.392Z,34.00
2017-12-13T01:59:34.570Z,35.97
2017-12-13T02:02:01.262Z,35.13
2017-12-13T02:04:27.946Z,36.57
2017-12-13T02:07:02.261Z,38.07
2017-12-13T02:09:41.668Z,37.07
2017-12-13T02:12:14.908Z,37.67
2017-12-13T02:17:27.119Z,36.67
2017-12-13T02:19:53.853Z,37.00
2017-12-13T02:22:20.597Z,36.20
2017-12-13T02:24:47.420Z,37.03
2017-12-13T02:27:23.962Z,33.23
2017-12-13T02:29:51.778Z,33.37
2017-12-13T02:32:18.476Z,37.90
2017-12-13T02:35:04.570Z,32.03
2017-12-13T02:40:23.489Z,39.77
2017-12-13T02:45:35.753Z,35.40
2017-12-13T02:48:02.490Z,31.73
2017-12-13T02:50:29.226Z,33.77
2017-12-13T02:52:55.958Z,28.70
2017-12-13T02:55:30.563Z,31.13
2017-12-13T02:58:00.430Z,25.57
2017-12-13T03:00:27.158Z,26.13
2017-12-13T03:02:53.850Z,33.90
2017-12-13T03:05:27.898Z,32.17
2017-12-13T03:08:00.480Z,33.47
2017-12-13T03:10:29.228Z,32.43
2017-12-13T03:12:55.925Z,32.10
2017-12-13T03:15:25.951Z,27.77
2017-12-13T03:17:56.738Z,31.43
2017-12-13T03:20:30.909Z,30.57
2017-12-13T03:23:03.916Z,31.77
2017-12-13T03:25:30.657Z,26.63
2017-12-13T03:27:57.407Z,27.63
2017-12-13T03:30:33.994Z,25.73
2017-12-13T03:33:07.541Z,30.23
2017-12-13T03:35:44.076Z,26.33
2017-12-13T03:38:10.779Z,22.13
2017-12-13T03:43:36.904Z,28.50
2017-12-13T03:46:04.634Z,27.77
2017-12-13T03:48:31.353Z,26.47
2017-12-13T03:51:11.265Z,27.40
2017-12-13T03:53:41.514Z,26.40
2017-12-13T03:56:18.329Z,26.83
2017-12-13T03:58:45.089Z,28.77
2017-12-13T04:01:11.801Z,27.13
2017-12-13T04:03:45.101Z,26.57
2017-12-13T04:11:49.248Z,25.03
2017-12-13T04:14:19.300Z,28.00
2017-12-13T04:16:46.013Z,25.03
2017-12-13T04:19:12.697Z,26.03
2017-12-13T04:21:39.458Z,23.27
2017-12-13T04:24:19.744Z,24.87
2017-12-13T04:26:49.729Z,24.53
2017-12-13T04:29:19.749Z,26.97
2017-12-13T04:31:50.369Z,23.80
2017-12-13T04:34:17.103Z,25.70
2017-12-13T04:36:43.809Z,24.87
2017-12-13T04:39:11.571Z,27.10
2017-12-13T04:41:45.095Z,24.57
2017-12-13T04:44:21.699Z,27.30
2017-12-13T04:46:48.435Z,25.60
2017-12-13T04:49:15.111Z,35.30
2017-12-13T04:51:46.871Z,36.60
2017-12-13T04:54:14.621Z,36.97
2017-12-13T04:56:41.365Z,36.10
2017-12-13T04:59:08.115Z,38.10
2017-12-13T05:01:34.827Z,40.10
2017-12-13T05:04:07.943Z,48.20
2017-12-13T05:06:34.711Z,52.73
2017-12-13T05:09:04.609Z,51.27
2017-12-13T05:11:31.382Z,55.30
2017-12-13T05:13:58.123Z,66.67
2017-12-13T05:16:34.769Z,61.43
2017-12-13T05:19:08.449Z,56.87
2017-12-13T05:21:40.215Z,57.37
2017-12-13T05:24:24.656Z,42.57
2017-12-13T05:26:55.058Z,57.30
2017-12-13T05:29:21.781Z,59.07
2017-12-13T05:31:48.553Z,53.03
2017-12-13T05:34:22.629Z,58.30
2017-12-13T05:36:57.723Z,58.83
2017-12-13T05:39:28.415Z,58.07
2017-12-13T05:41:55.151Z,54.77
2017-12-13T05:44:36.719Z,63.37
2017-12-13T05:47:07.323Z,64.43
2017-12-13T05:49:50.637Z,69.07
2017-12-13T05:52:22.489Z,73.57
2017-12-13T05:54:49.252Z,61.00
2017-12-13T05:57:26.593Z,82.53
2017-12-13T06:02:38.733Z,68.37
2017-12-13T06:05:08.605Z,76.43
2017-12-13T06:07:35.312Z,72.53
2017-12-13T06:10:02.047Z,72.83
2017-12-13T06:12:28.955Z,62.13
2017-12-13T06:15:00.948Z,62.07
2017-12-13T06:17:34.459Z,69.50
2017-12-13T06:20:06.343Z,54.67
2017-12-13T06:22:33.084Z,65.57
2017-12-13T06:24:59.840Z,57.40
2017-12-13T06:27:26.545Z,56.80
2017-12-13T06:29:56.265Z,53.80
2017-12-13T06:32:23.051Z,98.33
2017-12-13T06:34:49.779Z,117.03
2017-12-13T06:37:29.601Z,109.20
2017-12-13T06:40:11.174Z,115.30
2017-12-13T06:42:37.897Z,131.10
2017-12-13T06:45:04.717Z,127.73
2017-12-13T06:47:31.459Z,148.80
2017-12-13T06:49:58.199Z,155.90
2017-12-13T06:52:24.939Z,175.90
2017-12-13T06:54:51.672Z,186.13
2017-12-13T07:00:04.217Z,210.67
2017-12-13T07:08:15.197Z,179.13
2017-12-13T07:10:56.809Z,177.37
2017-12-13T07:13:24.541Z,173.10
2017-12-13T07:15:56.687Z,164.87
2017-12-13T07:18:23.447Z,180.80
2017-12-13T07:21:01.748Z,174.97
2017-12-13T07:23:28.437Z,180.50
2017-12-13T07:26:09.732Z,169.20
2017-12-13T07:28:36.436Z,173.03
2017-12-13T07:31:03.184Z,165.23
2017-12-13T07:33:30.962Z,171.63
2017-12-13T07:36:04.505Z,175.47
2017-12-13T07:38:31.226Z,203.20
2017-12-13T07:40:57.921Z,206.53
2017-12-13T07:43:24.657Z,232.77
2017-12-13T07:45:51.437Z,221.70
2017-12-13T07:51:03.561Z,191.13
2017-12-13T07:53:30.251Z,194.00
2017-12-13T07:55:56.951Z,207.13
2017-12-13T07:58:23.701Z,192.70
2017-12-13T08:00:50.387Z,215.83
2017-12-13T08:03:24.107Z,195.97
2017-12-13T08:05:50.813Z,192.83
2017-12-13T08:11:15.644Z,142.60
2017-12-13T08:13:42.367Z,139.37
2017-12-13T08:16:22.829Z,139.93
2017-12-13T08:18:54.171Z,153.73
2017-12-13T08:21:27.747Z,159.67
2017-12-13T08:23:54.477Z,164.33
2017-12-13T08:29:12.951Z,169.00
2017-12-13T08:31:48.387Z,149.30
2017-12-13T08:34:17.278Z,151.63
2017-12-13T08:36:48.906Z,148.83
2017-12-13T08:39:21.367Z,154.40
2017-12-13T08:41:50.040Z,141.47
2017-12-13T08:44:16.739Z,142.87
2017-12-13T08:46:44.476Z,132.93
2017-12-13T08:49:11.179Z,132.63
2017-12-13T08:51:38.843Z,138.23
2017-12-13T08:54:07.557Z,135.53
2017-12-13T08:56:38.103Z,148.97
2017-12-13T08:59:04.793Z,151.40
2017-12-13T09:01:31.652Z,142.93
2017-12-13T09:04:06.388Z,146.63
2017-12-13T09:06:45.703Z,159.27
2017-12-13T09:09:19.740Z,162.07
2017-12-13T09:11:46.560Z,161.13
2017-12-13T09:14:19.162Z,147.23
2017-12-13T09:16:56.686Z,151.50
2017-12-13T09:19:23.406Z,145.17
2017-12-13T09:22:06.728Z,137.87
2017-12-13T09:24:39.236Z,145.83
2017-12-13T09:27:06.005Z,143.13
2017-12-13T09:29:37.446Z,148.17
2017-12-13T09:32:18.476Z,127.23
2017-12-13T09:34:47.214Z,143.97
2017-12-13T09:37:13.943Z,154.53
2017-12-13T09:39:40.657Z,148.87
2017-12-13T09:42:08.368Z,161.03
2017-12-13T09:44:38.160Z,145.83
2017-12-13T09:47:04.866Z,131.50
2017-12-13T09:49:31.567Z,133.43
2017-12-13T09:51:58.302Z,127.33
2017-12-13T09:54:30.904Z,140.30
2017-12-13T09:56:58.574Z,138.00
2017-12-13T09:59:25.315Z,135.60
2017-12-13T10:01:58.346Z,138.50
2017-12-13T10:04:25.320Z,152.10
2017-12-13T10:06:53.048Z,146.47
2017-12-13T10:09:30.413Z,133.23
2017-12-13T10:11:58.062Z,139.97
2017-12-13T10:14:24.756Z,131.40
2017-12-13T10:16:51.478Z,133.83
2017-12-13T10:19:31.264Z,137.80
2017-12-13T10:21:58.992Z,122.40
2017-12-13T10:24:31.864Z,141.50
2017-12-13T10:26:58.617Z,114.43
2017-12-13T10:29:26.308Z,122.70
2017-12-13T10:31:52.997Z,134.67
2017-12-13T10:34:33.450Z,117.47
2017-12-13T10:37:06.069Z,128.50
2017-12-13T10:39:32.854Z,130.40
2017-12-13T10:42:03.823Z,119.20
2017-12-13T10:44:38.658Z,120.73
2017-12-13T10:47:15.959Z,122.53
2017-12-13T10:49:42.702Z,119.17
2017-12-13T10:52:09.476Z,106.67
2017-12-13T10:54:51.541Z,112.00
2017-12-13T10:57:20.288Z,100.17
2017-12-13T10:59:47.008Z,90.03
2017-12-13T11:02:13.832Z,84.13
2017-12-13T11:04:47.816Z,71.93
2017-12-13T11:07:18.275Z,59.53
2017-12-13T11:09:44.960Z,53.80
2017-12-13T11:12:17.422Z,48.13
2017-12-13T11:14:53.879Z,46.47
2017-12-13T11:17:20.578Z,40.93
2017-12-13T11:19:47.290Z,45.40
2017-12-13T11:22:14.043Z,37.93
2017-12-13T11:27:33.086Z,37.73
2017-12-13T11:29:59.768Z,39.80
2017-12-13T11:32:27.430Z,35.83
2017-12-13T11:34:54.190Z,31.37
2017-12-13T11:37:20.871Z,29.87
2017-12-13T11:39:49.584Z,33.80
2017-12-13T11:42:16.322Z,29.67
2017-12-13T11:44:43.016Z,28.17
2017-12-13T11:47:09.762Z,28.97
2017-12-13T11:49:39.558Z,31.83
2017-12-13T11:52:06.266Z,29.43
2017-12-13T11:54:46.712Z,28.10
2017-12-13T11:57:15.441Z,27.50
2017-12-13T11:59:42.126Z,25.77
2017-12-13T12:02:08.838Z,24.27
2017-12-13T12:04:37.518Z,21.93
2017-12-13T12:07:04.192Z,27.73
2017-12-13T12:09:35.030Z,26.73
2017-12-13T12:12:07.397Z,21.87
2017-12-13T12:14:35.590Z,22.33
2017-12-13T12:17:02.601Z,27.57
2017-12-13T12:19:29.290Z,31.37
2017-12-13T12:21:59.509Z,26.93
2017-12-13T12:24:28.270Z,30.50
2017-12-13T12:26:54.958Z,34.73
2017-12-13T12:29:31.924Z,24.67
2017-12-13T12:32:00.590Z,30.87
2017-12-13T12:34:42.142Z,30.77
2017-12-13T12:37:09.843Z,34.40
2017-12-13T12:39:46.622Z,29.87
2017-12-13T12:45:02.143Z,22.67
2017-12-13T12:50:22.030Z,22.83
2017-12-13T12:52:48.730Z,20.13
2017-12-13T12:55:15.421Z,13.47
2017-12-13T12:57:52.935Z,10.53
2017-12-13T13:00:28.443Z,10.83
2017-12-13T13:02:55.146Z,10.80
2017-12-13T13:05:21.852Z,10.27
2017-12-13T13:07:48.544Z,15.27
2017-12-13T13:10:15.266Z,13.60
2017-12-13T13:12:42.288Z,15.30
2017-12-13T13:15:12.058Z,13.60
2017-12-13T13:17:52.840Z,10.47
2017-12-13T13:20:30.467Z,17.17
2017-12-13T13:22:57.276Z,13.23
2017-12-13T13:25:23.966Z,18.33
2017-12-13T13:27:54.086Z,15.60
2017-12-13T13:30:31.382Z,14.67
2017-12-13T13:32:58.058Z,21.07
2017-12-13T13:35:24.756Z,28.20
2017-12-13T13:37:54.810Z,21.33
2017-12-13T13:40:21.509Z,18.67
2017-12-13T13:42:48.194Z,24.23
2017-12-13T13:45:14.928Z,24.20
2017-12-13T13:47:47.588Z,26.23
2017-12-13T13:52:59.626Z,26.23
2017-12-13T13:55:26.322Z,28.20
2017-12-13T13:57:56.072Z,25.37
2017-12-13T14:00:26.766Z,22.77
2017-12-13T14:02:53.462Z,27.67
2017-12-13T14:05:20.168Z,27.43
2017-12-13T14:07:46.884Z,31.50
2017-12-13T14:10:13.572Z,29.77
2017-12-13T14:12:40.263Z,21.37
2017-12-13T14:15:12.894Z,18.97
2017-12-13T14:17:42.837Z,24.13
2017-12-13T14:20:09.532Z,28.63
2017-12-13T14:22:42.779Z,29.60
2017-12-13T14:25:15.232Z,34.87
2017-12-13T14:30:33.838Z,27.60
2017-12-13T14:33:03.868Z,26.33
2017-12-13T14:35:30.536Z,29.70
2017-12-13T14:37:57.220Z,29.73
2017-12-13T14:40:23.947Z,34.60
2017-12-13T14:42:50.652Z,39.23
2017-12-13T14:45:17.390Z,45.30
2017-12-13T14:47:44.120Z,47.83
2017-12-13T14:50:23.343Z,51.87
2017-12-13T14:52:55.145Z,50.87
2017-12-13T14:55:33.841Z,51.43
2017-12-13T14:58:00.560Z,52.70
2017-12-13T15:00:30.709Z,57.70
2017-12-13T15:03:03.614Z,57.00
2017-12-13T15:05:30.343Z,52.03
2017-12-13T15:07:57.102Z,67.60
2017-12-13T15:10:23.818Z,76.10
2017-12-13T15:12:50.512Z,90.20
2017-12-13T15:15:29.978Z,94.03
2017-12-13T15:17:56.669Z,84.40
2017-12-13T15:20:23.352Z,93.63
2017-12-13T15:23:02.274Z,91.40
2017-12-13T15:25:38.883Z,88.13
2017-12-13T15:30:54.734Z,112.03
2017-12-13T15:33:21.488Z,107.10
2017-12-13T15:35:48.179Z,101.90
2017-12-13T15:38:15.894Z,124.60
2017-12-13T15:40:42.646Z,125.53
2017-12-13T15:43:09.332Z,137.70
2017-12-13T15:45:42.470Z,138.07
2017-12-13T15:48:16.450Z,139.53
2017-12-13T15:50:53.099Z,130.90
2017-12-13T15:53:19.797Z,118.13
2017-12-13T15:55:46.498Z,104.13
2017-12-13T15:58:13.215Z,90.90
2017-12-13T16:00:41.891Z,79.80
2017-12-13T16:03:08.626Z,88.23
2017-12-13T16:05:35.344Z,85.93
2017-12-13T16:08:12.692Z,75.90
2017-12-13T16:10:50.194Z,76.50
2017-12-13T16:13:28.158Z,69.33
2017-12-13T16:15:54.867Z,74.63
2017-12-13T16:18:21.563Z,80.80
2017-12-13T16:20:48.272Z,81.47
2017-12-13T16:23:23.058Z,85.30
2017-12-13T16:25:49.763Z,81.33
2017-12-13T16:28:16.504Z,111.63
2017-12-13T16:30:43.368Z,125.50
2017-12-13T16:33:10.102Z,147.00
2017-12-13T16:35:49.638Z,169.97
2017-12-13T16:38:16.552Z,172.50
2017-12-13T16:40:43.399Z,161.60
2017-12-13T16:43:16.895Z,164.33
2017-12-13T16:45:50.008Z,168.43
2017-12-13T16:48:16.781Z,162.87
2017-12-13T16:50:47.332Z,157.77
2017-12-13T16:53:14.049Z,161.07
2017-12-13T16:55:40.787Z,153.33
2017-12-13T16:58:07.478Z,162.13
2017-12-13T17:00:34.182Z,158.20
2017-12-13T17:03:11.298Z,166.77
2017-12-13T17:05:37.997Z,163.70
2017-12-13T17:08:13.393Z,168.13
2017-12-13T17:10:40.083Z,181.93
2017-12-13T17:13:20.501Z,205.90
2017-12-13T17:15:47.192Z,200.70
2017-12-13T17:18:13.885Z,194.93
2017-12-13T17:20:40.767Z,181.83
2017-12-13T17:23:11.586Z,186.53
2017-12-13T17:25:38.629Z,162.67
2017-12-13T17:28:05.331Z,147.60
2017-12-13T17:30:32.850Z,138.37
2017-12-13T17:32:59.546Z,129.43
2017-12-13T17:35:26.314Z,127.23
2017-12-13T17:37:53.057Z,134.97
2017-12-13T17:40:19.819Z,159.17
2017-12-13T17:42:46.867Z,172.77
2017-12-13T17:45:13.690Z,185.83
2017-12-13T17:47:40.481Z,173.53
2017-12-13T17:50:07.223Z,160.67
2017-12-13T17:52:33.922Z,154.57
2017-12-13T17:55:02.352Z,165.77
2017-12-13T17:57:29.078Z,173.10
2017-12-13T17:59:55.762Z,182.60
2017-12-13T18:02:22.463Z,174.67
2017-12-13T18:04:49.231Z,188.20
2017-12-13T18:07:16.022Z,186.03
2017-12-13T18:09:42.924Z,191.33
2017-12-13T18:12:09.677Z,200.10
2017-12-13T18:14:36.369Z,203.57
2017-12-13T18:17:03.068Z,215.93
2017-12-13T18:19:29.840Z,219.47
2017-12-13T18:21:56.512Z,224.47
2017-12-13T18:24:23.193Z,222.17
2017-12-13T18:26:49.900Z,186.63
2017-12-13T18:29:16.604Z,166.73
2017-12-13T18:31:43.287Z,182.10
2017-12-13T18:34:10.027Z,178.00
2017-12-13T18:36:36.778Z,182.73
2017-12-13T18:39:03.468Z,191.23
2017-12-13T18:41:30.219Z,202.70
2017-12-13T18:43:56.918Z,178.47
2017-12-13T18:46:23.623Z,186.13
2017-12-13T18:48:50.362Z,158.70
2017-12-13T18:51:17.067Z,164.93
2017-12-13T18:53:43.786Z,151.53
2017-12-13T18:56:10.583Z,156.17
2017-12-13T18:58:37.267Z,154.00
2017-12-13T19:01:04.003Z,144.37
2017-12-13T19:03:30.753Z,147.10
2017-12-13T19:05:57.440Z,156.03
2017-12-13T19:08:24.132Z,147.13
2017-12-13T19:10:50.866Z,158.17
2017-12-13T19:13:17.555Z,142.20
2017-12-13T19:15:44.236Z,145.93
2017-12-13T19:18:10.995Z,149.67
2017-12-13T19:20:37.685Z,158.13
2017-12-13T19:23:04.384Z,170.87
2017-12-13T19:25:31.141Z,175.93
2017-12-13T19:27:57.833Z,165.33
2017-12-13T19:30:24.593Z,156.00
2017-12-13T19:32:51.338Z,146.83
2017-12-13T19:35:18.041Z,137.40
2017-12-13T19:37:44.741Z,143.23
2017-12-13T19:40:11.473Z,153.73
2017-12-13T19:42:38.179Z,154.33
2017-12-13T19:45:04.879Z,158.00
2017-12-13T19:47:31.581Z,171.97
2017-12-13T19:49:58.261Z,170.63
2017-12-13T19:52:24.954Z,171.67
2017-12-13T19:54:51.675Z,162.20
2017-12-13T19:57:18.374Z,161.23
2017-12-13T19:59:45.069Z,142.80
2017-12-13T20:02:11.789Z,138.13
2017-12-13T20:04:38.475Z,152.93
2017-12-13T20:07:05.175Z,158.37
2017-12-13T20:09:31.918Z,166.03
2017-12-13T20:11:58.607Z,159.50
2017-12-13T20:14:25.291Z,157.67
2017-12-13T20:16:51.994Z,155.47
2017-12-13T20:19:18.688Z,133.43
2017-12-13T20:21:45.374Z,135.87
2017-12-13T20:24:12.128Z,130.17
2017-12-13T20:26:38.822Z,120.93
2017-12-13T20:29:05.522Z,127.87
2017-12-13T20:31:32.236Z,126.43
2017-12-13T20:33:58.924Z,115.67
2017-12-13T20:36:25.617Z,110.63
2017-12-13T20:38:52.314Z,108.00
2017-12-13T20:41:19.004Z,117.57
2017-12-13T20:43:45.697Z,114.20
2017-12-13T20:46:12.495Z,114.83
2017-12-13T20:48:39.195Z,109.33
2017-12-13T20:51:05.883Z,107.87
2017-12-13T20:53:32.620Z,104.37
2017-12-13T20:55:59.316Z,118.50
2017-12-13T20:58:26.013Z,124.10
2017-12-13T21:00:52.752Z,131.50
2017-12-13T21:03:19.440Z,129.93
2017-12-13T21:05:46.140Z,134.90
2017-12-13T21:08:12.870Z,134.63
2017-12-13T21:10:39.554Z,132.37
2017-12-13T21:13:06.234Z,145.17
2017-12-13T21:15:39.613Z,150.93
2017-12-13T21:18:06.312Z,146.60
2017-12-13T21:20:33.020Z,144.70
2017-12-13T21:22:59.778Z,154.67
2017-12-13T21:25:26.516Z,148.60
2017-12-13T21:27:53.199Z,157.30
2017-12-13T21:30:28.612Z,154.70
2017-12-13T21:32:55.306Z,149.20
2017-12-13T21:35:29.047Z,169.83
2017-12-13T21:37:55.738Z,156.57
2017-12-13T21:40:22.424Z,186.60
2017-12-13T21:42:55.334Z,191.03
2017-12-13T21:45:29.046Z,187.33
2017-12-13T21:47:55.774Z,190.73
2017-12-13T21:50:22.462Z,169.10
2017-12-13T21:53:01.761Z,158.97
2017-12-13T21:55:28.494Z,146.57
2017-12-13T21:58:08.667Z,130.03
2017-12-13T22:00:41.660Z,118.60
2017-12-13T22:03:13.586Z,122.07
2017-12-13T22:05:54.666Z,129.23
2017-12-13T22:08:26.846Z,129.70
2017-12-13T22:10:57.319Z,130.23
2017-12-13T22:13:31.551Z,143.83
2017-12-13T22:15:58.270Z,144.50
2017-12-13T22:18:28.510Z,138.60
2017-12-13T22:20:55.343Z,127.23
2017-12-13T22:23:39.388Z,142.70
2017-12-13T22:26:16.876Z,134.93
2017-12-13T22:28:47.343Z,130.50
2017-12-13T22:31:14.083Z,121.63
2017-12-13T22:33:40.838Z,119.83
2017-12-13T22:36:07.550Z,117.27
2017-12-13T22:38:44.399Z,119.77
2017-12-13T22:41:15.706Z,111.30
2017-12-13T22:43:42.432Z,132.60
2017-12-13T22:46:17.494Z,117.33
2017-12-13T22:48:56.694Z,112.30
2017-12-13T22:51:23.439Z,113.03
2017-12-13T22:53:51.129Z,110.73
2017-12-13T22:56:17.870Z,106.60
2017-12-13T22:58:55.133Z,96.23
2017-12-13T23:01:21.813Z,91.60
2017-12-13T23:03:48.555Z,94.37
2017-12-13T23:06:15.299Z,86.87
2017-12-13T23:08:42.023Z,89.67
2017-12-13T23:11:14.597Z,86.73
2017-12-13T23:13:43.319Z,87.10
2017-12-13T23:16:10.043Z,82.83
2017-12-13T23:18:36.727Z,71.27
2017-12-13T23:21:06.735Z,73.43
2017-12-13T23:23:33.465Z,61.27
2017-12-13T23:26:00.213Z,60.27
2017-12-13T23:28:27.006Z,55.10
2017-12-13T23:30:53.713Z,54.93
2017-12-13T23:33:20.463Z,57.30
2017-12-13T23:35:59.461Z,61.33
2017-12-13T23:38:40.740Z,63.67
2017-12-13T23:41:20.369Z,64.57
2017-12-13T23:43:48.083Z,68.50
2017-12-13T23:46:14.816Z,69.83
2017-12-13T23:48:42.505Z,63.80
2017-12-13T23:51:12.384Z,66.47
2017-12-13T23:53:41.095Z,64.17
2017-12-13T23:56:07.844Z,68.07
2017-12-13T23:58:34.587Z,58.53
